sensor_id;sensor_type;location;lat;lon;timestamp;P1;durP1;ratioP1;P2;durP2;ratioP2
2610;SDS011;5612;51.134;17.058;2023-12-04T00:00:23;32.00;;;22.77;;
2610;SDS011;5612;51.134;17.058;2023-12-04T00:02:53;38.00;;;26.63;;
2610;SDS011;5612;51.134;17.058;2023-12-04T00:05:23;35.97;;;24.33;;
2610;SDS011;5612;51.134;17.058;2023-12-04T00:07:54;39.93;;;26.23;;
2610;SDS011;5612;51.134;17.058;2023-12-04T00:10:24;34.80;;;25.50;;
2610;SDS011;5612;51.134;17.058;2023-12-04T00:12:53;35.10;;;25.77;;
2610;SDS011;5612;51.134;17.058;2023-12-04T00:15:23;38.77;;;25.30;;
2610;SDS011;5612;51.134;17.058;2023-12-04T00:17:53;39.50;;;25.93;;
2610;SDS011;5612;51.134;17.058;2023-12-04T00:20:22;37.87;;;24.90;;
2610;SDS011;5612;51.134;17.058;2023-12-04T00:22:52;35.83;;;26.73;;
2610;SDS011;5612;51.134;17.058;2023-12-04T00:25:23;35.53;;;26.13;;
2610;SDS011;5612;51.134;17.058;2023-12-04T00:27:53;43.10;;;27.40;;
2610;SDS011;5612;51.134;17.058;2023-12-04T00:30:23;33.50;;;25.13;;
2610;SDS011;5612;51.134;17.058;2023-12-04T00:32:52;40.43;;;26.80;;
2610;SDS011;5612;51.134;17.058;2023-12-04T00:35:22;38.53;;;25.63;;
2610;SDS011;5612;51.134;17.058;2023-12-04T00:37:51;36.40;;;25.00;;
2610;SDS011;5612;51.134;17.058;2023-12-04T00:40:22;37.40;;;25.57;;
2610;SDS011;5612;51.134;17.058;2023-12-04T00:42:52;39.40;;;26.23;;
2610;SDS011;5612;51.134;17.058;2023-12-04T00:45:22;38.47;;;26.17;;
2610;SDS011;5612;51.134;17.058;2023-12-04T00:47:52;34.67;;;24.50;;
2610;SDS011;5612;51.134;17.058;2023-12-04T00:50:22;34.20;;;23.30;;
2610;SDS011;5612;51.134;17.058;2023-12-04T00:52:53;35.13;;;24.27;;
2610;SDS011;5612;51.134;17.058;2023-12-04T00:55:24;35.40;;;24.97;;
2610;SDS011;5612;51.134;17.058;2023-12-04T00:57:53;32.90;;;22.63;;
2610;SDS011;5612;51.134;17.058;2023-12-04T01:00:22;38.17;;;26.00;;
2610;SDS011;5612;51.134;17.058;2023-12-04T01:02:52;35.70;;;23.00;;
2610;SDS011;5612;51.134;17.058;2023-12-04T01:05:22;36.83;;;26.67;;
2610;SDS011;5612;51.134;17.058;2023-12-04T01:07:53;35.50;;;24.73;;
2610;SDS011;5612;51.134;17.058;2023-12-04T01:10:24;32.97;;;24.87;;
2610;SDS011;5612;51.134;17.058;2023-12-04T01:12:53;30.17;;;24.40;;
2610;SDS011;5612;51.134;17.058;2023-12-04T01:15:23;33.80;;;25.27;;
2610;SDS011;5612;51.134;17.058;2023-12-04T01:17:53;36.90;;;23.00;;
2610;SDS011;5612;51.134;17.058;2023-12-04T01:20:23;40.50;;;28.60;;
2610;SDS011;5612;51.134;17.058;2023-12-04T01:22:53;40.67;;;26.33;;
2610;SDS011;5612;51.134;17.058;2023-12-04T01:25:25;37.80;;;26.80;;
2610;SDS011;5612;51.134;17.058;2023-12-04T01:27:55;31.80;;;23.07;;
2610;SDS011;5612;51.134;17.058;2023-12-04T01:30:25;32.63;;;24.33;;
2610;SDS011;5612;51.134;17.058;2023-12-04T01:32:55;39.43;;;27.00;;
2610;SDS011;5612;51.134;17.058;2023-12-04T01:35:25;36.77;;;25.17;;
2610;SDS011;5612;51.134;17.058;2023-12-04T01:37:55;40.83;;;28.80;;
2610;SDS011;5612;51.134;17.058;2023-12-04T01:40:27;37.43;;;25.13;;
2610;SDS011;5612;51.134;17.058;2023-12-04T01:42:57;33.77;;;23.40;;
2610;SDS011;5612;51.134;17.058;2023-12-04T01:45:26;34.30;;;23.97;;
2610;SDS011;5612;51.134;17.058;2023-12-04T01:47:57;37.10;;;26.77;;
2610;SDS011;5612;51.134;17.058;2023-12-04T01:50:27;30.57;;;24.77;;
2610;SDS011;5612;51.134;17.058;2023-12-04T01:52:57;33.43;;;23.97;;
2610;SDS011;5612;51.134;17.058;2023-12-04T01:55:28;34.93;;;24.43;;
2610;SDS011;5612;51.134;17.058;2023-12-04T01:58:00;33.60;;;24.50;;
2610;SDS011;5612;51.134;17.058;2023-12-04T02:00:32;38.03;;;25.40;;
2610;SDS011;5612;51.134;17.058;2023-12-04T02:03:02;38.33;;;27.57;;
2610;SDS011;5612;51.134;17.058;2023-12-04T02:05:32;34.00;;;26.30;;
2610;SDS011;5612;51.134;17.058;2023-12-04T02:08:03;38.73;;;26.67;;
2610;SDS011;5612;51.134;17.058;2023-12-04T02:10:35;35.33;;;24.77;;
2610;SDS011;5612;51.134;17.058;2023-12-04T02:13:06;33.43;;;24.57;;
2610;SDS011;5612;51.134;17.058;2023-12-04T02:15:36;34.90;;;24.90;;
2610;SDS011;5612;51.134;17.058;2023-12-04T02:18:06;36.63;;;26.70;;
2610;SDS011;5612;51.134;17.058;2023-12-04T02:20:36;35.27;;;25.47;;
2610;SDS011;5612;51.134;17.058;2023-12-04T02:23:05;32.10;;;25.47;;
2610;SDS011;5612;51.134;17.058;2023-12-04T02:25:37;32.13;;;22.87;;
2610;SDS011;5612;51.134;17.058;2023-12-04T02:28:07;34.60;;;25.57;;
2610;SDS011;5612;51.134;17.058;2023-12-04T02:30:43;38.93;;;26.30;;
2610;SDS011;5612;51.134;17.058;2023-12-04T02:33:14;33.90;;;24.17;;
2610;SDS011;5612;51.134;17.058;2023-12-04T02:35:56;36.47;;;26.83;;
2610;SDS011;5612;51.134;17.058;2023-12-04T02:38:38;39.77;;;28.00;;
2610;SDS011;5612;51.134;17.058;2023-12-04T02:41:21;43.53;;;29.30;;
2610;SDS011;5612;51.134;17.058;2023-12-04T02:43:51;37.60;;;28.20;;
2610;SDS011;5612;51.134;17.058;2023-12-04T02:46:21;41.53;;;27.90;;
2610;SDS011;5612;51.134;17.058;2023-12-04T02:48:52;49.90;;;31.03;;
2610;SDS011;5612;51.134;17.058;2023-12-04T02:51:22;38.93;;;29.67;;
2610;SDS011;5612;51.134;17.058;2023-12-04T02:53:53;35.23;;;25.60;;
2610;SDS011;5612;51.134;17.058;2023-12-04T02:56:24;46.63;;;29.20;;
2610;SDS011;5612;51.134;17.058;2023-12-04T02:58:54;42.07;;;30.57;;
2610;SDS011;5612;51.134;17.058;2023-12-04T03:01:24;48.93;;;31.33;;
2610;SDS011;5612;51.134;17.058;2023-12-04T03:03:53;42.20;;;29.73;;
2610;SDS011;5612;51.134;17.058;2023-12-04T03:06:23;40.93;;;29.47;;
2610;SDS011;5612;51.134;17.058;2023-12-04T03:08:53;48.50;;;32.37;;
2610;SDS011;5612;51.134;17.058;2023-12-04T03:11:23;50.40;;;35.20;;
2610;SDS011;5612;51.134;17.058;2023-12-04T03:13:55;45.17;;;32.60;;
2610;SDS011;5612;51.134;17.058;2023-12-04T03:16:23;53.50;;;34.50;;
2610;SDS011;5612;51.134;17.058;2023-12-04T03:18:53;46.03;;;33.27;;
2610;SDS011;5612;51.134;17.058;2023-12-04T03:21:23;45.40;;;32.30;;
2610;SDS011;5612;51.134;17.058;2023-12-04T03:23:53;52.60;;;34.60;;
2610;SDS011;5612;51.134;17.058;2023-12-04T03:26:24;54.37;;;33.57;;
2610;SDS011;5612;51.134;17.058;2023-12-04T03:28:56;51.80;;;34.87;;
2610;SDS011;5612;51.134;17.058;2023-12-04T03:31:25;49.00;;;32.57;;
2610;SDS011;5612;51.134;17.058;2023-12-04T03:33:56;51.20;;;35.30;;
2610;SDS011;5612;51.134;17.058;2023-12-04T03:36:25;47.77;;;31.60;;
2610;SDS011;5612;51.134;17.058;2023-12-04T03:38:55;44.90;;;31.60;;
2610;SDS011;5612;51.134;17.058;2023-12-04T03:41:26;47.27;;;33.57;;
2610;SDS011;5612;51.134;17.058;2023-12-04T03:43:56;47.77;;;32.93;;
2610;SDS011;5612;51.134;17.058;2023-12-04T03:46:26;52.37;;;32.57;;
2610;SDS011;5612;51.134;17.058;2023-12-04T03:48:55;50.37;;;35.73;;
2610;SDS011;5612;51.134;17.058;2023-12-04T03:51:25;52.50;;;37.47;;
2610;SDS011;5612;51.134;17.058;2023-12-04T03:53:55;51.97;;;36.50;;
2610;SDS011;5612;51.134;17.058;2023-12-04T03:56:26;51.60;;;37.80;;
2610;SDS011;5612;51.134;17.058;2023-12-04T03:58:56;51.97;;;37.00;;
2610;SDS011;5612;51.134;17.058;2023-12-04T04:01:26;51.33;;;35.27;;
2610;SDS011;5612;51.134;17.058;2023-12-04T04:03:56;55.60;;;37.80;;
2610;SDS011;5612;51.134;17.058;2023-12-04T04:06:26;43.57;;;32.00;;
2610;SDS011;5612;51.134;17.058;2023-12-04T04:08:56;44.20;;;31.53;;
2610;SDS011;5612;51.134;17.058;2023-12-04T04:11:27;43.77;;;33.43;;
2610;SDS011;5612;51.134;17.058;2023-12-04T04:13:58;47.63;;;34.83;;
2610;SDS011;5612;51.134;17.058;2023-12-04T04:16:27;48.93;;;34.97;;
2610;SDS011;5612;51.134;17.058;2023-12-04T04:18:57;45.90;;;34.13;;
2610;SDS011;5612;51.134;17.058;2023-12-04T04:21:27;48.03;;;35.23;;
2610;SDS011;5612;51.134;17.058;2023-12-04T04:23:57;47.30;;;33.40;;
2610;SDS011;5612;51.134;17.058;2023-12-04T04:26:28;47.53;;;33.40;;
2610;SDS011;5612;51.134;17.058;2023-12-04T04:28:58;44.17;;;33.47;;
2610;SDS011;5612;51.134;17.058;2023-12-04T04:31:28;42.70;;;33.50;;
2610;SDS011;5612;51.134;17.058;2023-12-04T04:33:58;44.73;;;34.57;;
2610;SDS011;5612;51.134;17.058;2023-12-04T04:36:28;47.97;;;33.93;;
2610;SDS011;5612;51.134;17.058;2023-12-04T04:38:57;42.73;;;32.60;;
2610;SDS011;5612;51.134;17.058;2023-12-04T04:41:29;53.83;;;37.07;;
2610;SDS011;5612;51.134;17.058;2023-12-04T04:43:58;42.27;;;32.40;;
2610;SDS011;5612;51.134;17.058;2023-12-04T04:46:28;40.70;;;31.53;;
2610;SDS011;5612;51.134;17.058;2023-12-04T04:48:58;41.23;;;30.77;;
2610;SDS011;5612;51.134;17.058;2023-12-04T04:51:29;42.43;;;31.23;;
2610;SDS011;5612;51.134;17.058;2023-12-04T04:53:58;43.77;;;34.07;;
2610;SDS011;5612;51.134;17.058;2023-12-04T04:56:29;48.30;;;36.97;;
2610;SDS011;5612;51.134;17.058;2023-12-04T04:58:59;45.23;;;36.60;;
2610;SDS011;5612;51.134;17.058;2023-12-04T05:01:29;52.50;;;38.70;;
2610;SDS011;5612;51.134;17.058;2023-12-04T05:04:00;52.00;;;36.93;;
2610;SDS011;5612;51.134;17.058;2023-12-04T05:06:30;50.07;;;34.20;;
2610;SDS011;5612;51.134;17.058;2023-12-04T05:09:00;46.60;;;34.20;;
2610;SDS011;5612;51.134;17.058;2023-12-04T05:11:31;46.00;;;33.40;;
2610;SDS011;5612;51.134;17.058;2023-12-04T05:14:01;41.70;;;32.47;;
2610;SDS011;5612;51.134;17.058;2023-12-04T05:16:30;43.37;;;33.27;;
2610;SDS011;5612;51.134;17.058;2023-12-04T05:19:00;43.10;;;30.23;;
2610;SDS011;5612;51.134;17.058;2023-12-04T05:21:29;47.20;;;34.80;;
2610;SDS011;5612;51.134;17.058;2023-12-04T05:23:59;43.70;;;32.90;;
2610;SDS011;5612;51.134;17.058;2023-12-04T05:26:31;46.53;;;33.53;;
2610;SDS011;5612;51.134;17.058;2023-12-04T05:29:01;52.60;;;35.47;;
2610;SDS011;5612;51.134;17.058;2023-12-04T05:31:30;41.57;;;30.70;;
2610;SDS011;5612;51.134;17.058;2023-12-04T05:34:00;43.63;;;31.97;;
2610;SDS011;5612;51.134;17.058;2023-12-04T05:36:31;50.63;;;35.17;;
2610;SDS011;5612;51.134;17.058;2023-12-04T05:39:00;48.17;;;35.10;;
2610;SDS011;5612;51.134;17.058;2023-12-04T05:41:33;48.47;;;34.53;;
2610;SDS011;5612;51.134;17.058;2023-12-04T05:44:03;46.47;;;36.07;;
2610;SDS011;5612;51.134;17.058;2023-12-04T05:46:33;45.27;;;35.47;;
2610;SDS011;5612;51.134;17.058;2023-12-04T05:49:03;44.07;;;32.20;;
2610;SDS011;5612;51.134;17.058;2023-12-04T05:51:32;47.60;;;35.83;;
2610;SDS011;5612;51.134;17.058;2023-12-04T05:54:02;53.60;;;35.20;;
2610;SDS011;5612;51.134;17.058;2023-12-04T05:56:33;52.33;;;35.37;;
2610;SDS011;5612;51.134;17.058;2023-12-04T05:59:03;48.87;;;35.90;;
2610;SDS011;5612;51.134;17.058;2023-12-04T06:01:34;52.60;;;36.43;;
2610;SDS011;5612;51.134;17.058;2023-12-04T06:04:05;47.50;;;34.57;;
2610;SDS011;5612;51.134;17.058;2023-12-04T06:06:35;51.67;;;37.00;;
2610;SDS011;5612;51.134;17.058;2023-12-04T06:09:05;48.50;;;35.07;;
2610;SDS011;5612;51.134;17.058;2023-12-04T06:11:37;47.77;;;32.83;;
2610;SDS011;5612;51.134;17.058;2023-12-04T06:14:10;51.60;;;35.07;;
2610;SDS011;5612;51.134;17.058;2023-12-04T06:16:39;54.97;;;39.17;;
2610;SDS011;5612;51.134;17.058;2023-12-04T06:19:09;51.03;;;39.20;;
2610;SDS011;5612;51.134;17.058;2023-12-04T06:21:38;47.53;;;34.20;;
2610;SDS011;5612;51.134;17.058;2023-12-04T06:24:08;51.77;;;34.27;;
2610;SDS011;5612;51.134;17.058;2023-12-04T06:26:41;49.43;;;34.37;;
2610;SDS011;5612;51.134;17.058;2023-12-04T06:29:11;48.93;;;35.73;;
2610;SDS011;5612;51.134;17.058;2023-12-04T06:31:41;54.27;;;36.93;;
2610;SDS011;5612;51.134;17.058;2023-12-04T06:34:11;50.53;;;37.17;;
2610;SDS011;5612;51.134;17.058;2023-12-04T06:36:41;53.30;;;37.03;;
2610;SDS011;5612;51.134;17.058;2023-12-04T06:39:12;53.37;;;36.70;;
2610;SDS011;5612;51.134;17.058;2023-12-04T06:41:43;56.67;;;37.60;;
2610;SDS011;5612;51.134;17.058;2023-12-04T06:44:13;57.37;;;37.23;;
2610;SDS011;5612;51.134;17.058;2023-12-04T06:46:44;58.50;;;39.70;;
2610;SDS011;5612;51.134;17.058;2023-12-04T06:49:21;58.47;;;38.63;;
2610;SDS011;5612;51.134;17.058;2023-12-04T06:51:52;54.37;;;38.17;;
2610;SDS011;5612;51.134;17.058;2023-12-04T06:54:21;55.00;;;37.70;;
2610;SDS011;5612;51.134;17.058;2023-12-04T06:56:54;59.33;;;38.30;;
2610;SDS011;5612;51.134;17.058;2023-12-04T06:59:23;49.77;;;36.80;;
2610;SDS011;5612;51.134;17.058;2023-12-04T07:01:53;55.17;;;36.80;;
2610;SDS011;5612;51.134;17.058;2023-12-04T07:04:22;53.83;;;37.23;;
2610;SDS011;5612;51.134;17.058;2023-12-04T07:06:52;55.63;;;39.33;;
2610;SDS011;5612;51.134;17.058;2023-12-04T07:09:21;55.73;;;37.97;;
2610;SDS011;5612;51.134;17.058;2023-12-04T07:11:51;62.40;;;41.90;;
2610;SDS011;5612;51.134;17.058;2023-12-04T07:14:23;59.83;;;40.83;;
2610;SDS011;5612;51.134;17.058;2023-12-04T07:16:52;64.67;;;45.10;;
2610;SDS011;5612;51.134;17.058;2023-12-04T07:19:22;57.30;;;42.27;;
2610;SDS011;5612;51.134;17.058;2023-12-04T07:21:52;60.07;;;40.67;;
2610;SDS011;5612;51.134;17.058;2023-12-04T07:24:22;53.00;;;40.10;;
2610;SDS011;5612;51.134;17.058;2023-12-04T07:26:53;51.23;;;36.50;;
2610;SDS011;5612;51.134;17.058;2023-12-04T07:29:24;57.23;;;40.33;;
2610;SDS011;5612;51.134;17.058;2023-12-04T07:31:54;56.17;;;39.53;;
2610;SDS011;5612;51.134;17.058;2023-12-04T07:34:23;51.70;;;39.87;;
2610;SDS011;5612;51.134;17.058;2023-12-04T07:36:54;55.60;;;37.73;;
2610;SDS011;5612;51.134;17.058;2023-12-04T07:39:24;50.00;;;34.20;;
2610;SDS011;5612;51.134;17.058;2023-12-04T07:41:54;53.80;;;36.77;;
2610;SDS011;5612;51.134;17.058;2023-12-04T07:44:40;55.93;;;38.23;;
2610;SDS011;5612;51.134;17.058;2023-12-04T07:47:11;50.10;;;36.40;;
2610;SDS011;5612;51.134;17.058;2023-12-04T07:49:41;54.00;;;37.70;;
2610;SDS011;5612;51.134;17.058;2023-12-04T07:52:13;47.70;;;35.50;;
2610;SDS011;5612;51.134;17.058;2023-12-04T07:54:43;52.73;;;38.10;;
2610;SDS011;5612;51.134;17.058;2023-12-04T07:57:14;51.80;;;33.70;;
2610;SDS011;5612;51.134;17.058;2023-12-04T07:59:46;49.03;;;31.60;;
2610;SDS011;5612;51.134;17.058;2023-12-04T08:02:20;40.87;;;27.73;;
2610;SDS011;5612;51.134;17.058;2023-12-04T08:04:55;42.97;;;27.83;;
2610;SDS011;5612;51.134;17.058;2023-12-04T08:07:25;49.00;;;29.23;;
2610;SDS011;5612;51.134;17.058;2023-12-04T08:09:59;40.20;;;26.10;;
2610;SDS011;5612;51.134;17.058;2023-12-04T08:12:32;41.90;;;26.83;;
2610;SDS011;5612;51.134;17.058;2023-12-04T08:15:05;44.53;;;26.90;;
2610;SDS011;5612;51.134;17.058;2023-12-04T08:17:39;37.10;;;25.50;;
2610;SDS011;5612;51.134;17.058;2023-12-04T08:20:10;42.27;;;27.40;;
2610;SDS011;5612;51.134;17.058;2023-12-04T08:22:50;35.60;;;27.00;;
2610;SDS011;5612;51.134;17.058;2023-12-04T08:25:20;36.17;;;25.30;;
2610;SDS011;5612;51.134;17.058;2023-12-04T08:27:50;36.17;;;24.13;;
2610;SDS011;5612;51.134;17.058;2023-12-04T08:30:21;33.60;;;23.27;;
2610;SDS011;5612;51.134;17.058;2023-12-04T08:32:51;32.30;;;22.50;;
2610;SDS011;5612;51.134;17.058;2023-12-04T08:35:22;32.53;;;22.13;;
2610;SDS011;5612;51.134;17.058;2023-12-04T08:37:51;32.97;;;22.93;;
2610;SDS011;5612;51.134;17.058;2023-12-04T08:40:21;33.03;;;23.37;;
2610;SDS011;5612;51.134;17.058;2023-12-04T08:42:51;34.87;;;24.00;;
2610;SDS011;5612;51.134;17.058;2023-12-04T08:45:22;39.47;;;27.60;;
2610;SDS011;5612;51.134;17.058;2023-12-04T08:47:52;35.17;;;26.53;;
2610;SDS011;5612;51.134;17.058;2023-12-04T08:50:21;33.33;;;25.10;;
2610;SDS011;5612;51.134;17.058;2023-12-04T08:52:52;29.43;;;23.60;;
2610;SDS011;5612;51.134;17.058;2023-12-04T08:55:21;36.83;;;27.83;;
2610;SDS011;5612;51.134;17.058;2023-12-04T08:57:51;31.97;;;25.10;;
2610;SDS011;5612;51.134;17.058;2023-12-04T09:00:22;30.70;;;26.87;;
2610;SDS011;5612;51.134;17.058;2023-12-04T09:02:52;27.87;;;24.87;;
2610;SDS011;5612;51.134;17.058;2023-12-04T09:05:34;33.17;;;28.07;;
2610;SDS011;5612;51.134;17.058;2023-12-04T09:08:04;30.97;;;25.17;;
2610;SDS011;5612;51.134;17.058;2023-12-04T09:10:36;29.03;;;25.63;;
2610;SDS011;5612;51.134;17.058;2023-12-04T09:13:28;29.27;;;25.80;;
2610;SDS011;5612;51.134;17.058;2023-12-04T09:16:01;30.03;;;26.67;;
2610;SDS011;5612;51.134;17.058;2023-12-04T09:18:31;31.13;;;27.40;;
2610;SDS011;5612;51.134;17.058;2023-12-04T09:21:01;29.97;;;26.77;;
2610;SDS011;5612;51.134;17.058;2023-12-04T09:23:31;29.80;;;26.70;;
2610;SDS011;5612;51.134;17.058;2023-12-04T09:26:01;27.80;;;24.33;;
2610;SDS011;5612;51.134;17.058;2023-12-04T09:28:31;28.13;;;24.97;;
2610;SDS011;5612;51.134;17.058;2023-12-04T09:31:03;28.70;;;25.50;;
2610;SDS011;5612;51.134;17.058;2023-12-04T09:33:35;28.57;;;25.67;;
2610;SDS011;5612;51.134;17.058;2023-12-04T09:36:07;23.70;;;21.37;;
2610;SDS011;5612;51.134;17.058;2023-12-04T09:38:38;25.67;;;22.97;;
2610;SDS011;5612;51.134;17.058;2023-12-04T09:41:10;25.77;;;23.10;;
2610;SDS011;5612;51.134;17.058;2023-12-04T09:43:44;25.07;;;22.57;;
2610;SDS011;5612;51.134;17.058;2023-12-04T09:46:18;24.30;;;21.70;;
2610;SDS011;5612;51.134;17.058;2023-12-04T09:48:50;27.83;;;24.10;;
2610;SDS011;5612;51.134;17.058;2023-12-04T09:51:22;25.23;;;22.50;;
2610;SDS011;5612;51.134;17.058;2023-12-04T09:53:54;25.33;;;22.77;;
2610;SDS011;5612;51.134;17.058;2023-12-04T09:56:26;25.67;;;22.97;;
2610;SDS011;5612;51.134;17.058;2023-12-04T09:58:57;33.50;;;27.63;;
2610;SDS011;5612;51.134;17.058;2023-12-04T10:01:29;26.87;;;22.90;;
2610;SDS011;5612;51.134;17.058;2023-12-04T10:04:01;28.37;;;25.30;;
2610;SDS011;5612;51.134;17.058;2023-12-04T10:06:32;27.33;;;24.50;;
2610;SDS011;5612;51.134;17.058;2023-12-04T10:09:02;25.80;;;23.30;;
2610;SDS011;5612;51.134;17.058;2023-12-04T10:11:31;24.23;;;21.90;;
2610;SDS011;5612;51.134;17.058;2023-12-04T10:14:01;24.20;;;21.80;;
2610;SDS011;5612;51.134;17.058;2023-12-04T10:16:34;20.70;;;18.60;;
2610;SDS011;5612;51.134;17.058;2023-12-04T10:19:15;22.97;;;20.47;;
2610;SDS011;5612;51.134;17.058;2023-12-04T10:21:47;24.00;;;21.57;;
2610;SDS011;5612;51.134;17.058;2023-12-04T10:24:28;24.83;;;22.27;;
2610;SDS011;5612;51.134;17.058;2023-12-04T10:26:59;27.10;;;23.60;;
2610;SDS011;5612;51.134;17.058;2023-12-04T10:29:39;25.80;;;23.20;;
2610;SDS011;5612;51.134;17.058;2023-12-04T10:32:12;23.87;;;21.47;;
2610;SDS011;5612;51.134;17.058;2023-12-04T10:34:42;26.70;;;23.83;;
2610;SDS011;5612;51.134;17.058;2023-12-04T10:37:11;33.67;;;30.07;;
2610;SDS011;5612;51.134;17.058;2023-12-04T10:39:47;37.67;;;31.80;;
2610;SDS011;5612;51.134;17.058;2023-12-04T10:42:23;35.10;;;31.47;;
2610;SDS011;5612;51.134;17.058;2023-12-04T10:44:54;35.07;;;31.43;;
2610;SDS011;5612;51.134;17.058;2023-12-04T10:47:27;34.47;;;30.70;;
2610;SDS011;5612;51.134;17.058;2023-12-04T10:49:57;33.97;;;30.30;;
2610;SDS011;5612;51.134;17.058;2023-12-04T10:52:28;34.23;;;30.67;;
2610;SDS011;5612;51.134;17.058;2023-12-04T10:54:59;34.33;;;30.80;;
2610;SDS011;5612;51.134;17.058;2023-12-04T10:57:31;33.03;;;29.57;;
2610;SDS011;5612;51.134;17.058;2023-12-04T11:00:05;35.63;;;31.93;;
2610;SDS011;5612;51.134;17.058;2023-12-04T11:02:39;34.37;;;30.90;;
2610;SDS011;5612;51.134;17.058;2023-12-04T11:05:15;33.87;;;30.37;;
2610;SDS011;5612;51.134;17.058;2023-12-04T11:07:48;33.47;;;29.87;;
2610;SDS011;5612;51.134;17.058;2023-12-04T11:10:41;32.10;;;28.67;;
2610;SDS011;5612;51.134;17.058;2023-12-04T11:13:21;33.80;;;30.47;;
2610;SDS011;5612;51.134;17.058;2023-12-04T11:15:56;32.93;;;28.13;;
2610;SDS011;5612;51.134;17.058;2023-12-04T11:18:34;31.47;;;28.07;;
2610;SDS011;5612;51.134;17.058;2023-12-04T11:21:07;32.33;;;27.83;;
2610;SDS011;5612;51.134;17.058;2023-12-04T11:23:38;34.00;;;27.40;;
2610;SDS011;5612;51.134;17.058;2023-12-04T11:26:10;37.20;;;28.40;;
2610;SDS011;5612;51.134;17.058;2023-12-04T11:28:40;28.53;;;25.73;;
2610;SDS011;5612;51.134;17.058;2023-12-04T11:31:11;28.00;;;25.07;;
2610;SDS011;5612;51.134;17.058;2023-12-04T11:33:43;29.77;;;26.50;;
2610;SDS011;5612;51.134;17.058;2023-12-04T11:36:13;30.63;;;27.50;;
2610;SDS011;5612;51.134;17.058;2023-12-04T11:38:46;30.40;;;27.30;;
2610;SDS011;5612;51.134;17.058;2023-12-04T11:41:17;32.83;;;28.50;;
2610;SDS011;5612;51.134;17.058;2023-12-04T11:43:54;30.53;;;27.50;;
2610;SDS011;5612;51.134;17.058;2023-12-04T11:46:25;30.53;;;27.50;;
2610;SDS011;5612;51.134;17.058;2023-12-04T11:51:58;31.93;;;28.50;;
2610;SDS011;5612;51.134;17.058;2023-12-04T11:54:28;31.40;;;28.20;;
2610;SDS011;5612;51.134;17.058;2023-12-04T11:57:19;33.93;;;30.20;;
2610;SDS011;5612;51.134;17.058;2023-12-04T11:59:54;36.87;;;31.17;;
2610;SDS011;5612;51.134;17.058;2023-12-04T12:02:44;34.17;;;30.57;;
2610;SDS011;5612;51.134;17.058;2023-12-04T12:05:38;42.53;;;36.10;;
2610;SDS011;5612;51.134;17.058;2023-12-04T12:08:09;39.57;;;32.37;;
2610;SDS011;5612;51.134;17.058;2023-12-04T12:10:39;32.70;;;29.10;;
2610;SDS011;5612;51.134;17.058;2023-12-04T12:13:10;37.93;;;30.33;;
2610;SDS011;5612;51.134;17.058;2023-12-04T12:15:41;35.03;;;27.97;;
2610;SDS011;5612;51.134;17.058;2023-12-04T12:18:11;33.87;;;29.00;;
2610;SDS011;5612;51.134;17.058;2023-12-04T12:20:42;33.40;;;28.67;;
2610;SDS011;5612;51.134;17.058;2023-12-04T12:23:12;34.87;;;30.07;;
2610;SDS011;5612;51.134;17.058;2023-12-04T12:25:41;34.43;;;29.70;;
2610;SDS011;5612;51.134;17.058;2023-12-04T12:28:11;33.03;;;29.43;;
2610;SDS011;5612;51.134;17.058;2023-12-04T12:30:41;37.10;;;29.70;;
2610;SDS011;5612;51.134;17.058;2023-12-04T12:33:13;36.03;;;28.17;;
2610;SDS011;5612;51.134;17.058;2023-12-04T12:35:47;39.63;;;31.53;;
2610;SDS011;5612;51.134;17.058;2023-12-04T12:38:28;35.57;;;28.00;;
2610;SDS011;5612;51.134;17.058;2023-12-04T12:41:01;40.60;;;30.60;;
2610;SDS011;5612;51.134;17.058;2023-12-04T12:43:35;35.47;;;28.90;;
2610;SDS011;5612;51.134;17.058;2023-12-04T12:46:06;40.33;;;31.27;;
2610;SDS011;5612;51.134;17.058;2023-12-04T12:48:36;45.63;;;31.83;;
2610;SDS011;5612;51.134;17.058;2023-12-04T12:51:08;39.03;;;29.20;;
2610;SDS011;5612;51.134;17.058;2023-12-04T12:53:41;35.37;;;28.87;;
2610;SDS011;5612;51.134;17.058;2023-12-04T12:56:18;36.20;;;28.03;;
2610;SDS011;5612;51.134;17.058;2023-12-04T12:58:49;38.87;;;26.57;;
2610;SDS011;5612;51.134;17.058;2023-12-04T13:01:20;33.77;;;26.50;;
2610;SDS011;5612;51.134;17.058;2023-12-04T13:03:52;42.47;;;30.90;;
2610;SDS011;5612;51.134;17.058;2023-12-04T13:06:26;36.37;;;29.13;;
2610;SDS011;5612;51.134;17.058;2023-12-04T13:08:58;40.53;;;29.63;;
2610;SDS011;5612;51.134;17.058;2023-12-04T13:11:28;43.30;;;30.30;;
2610;SDS011;5612;51.134;17.058;2023-12-04T13:13:57;37.63;;;27.83;;
2610;SDS011;5612;51.134;17.058;2023-12-04T13:16:27;43.20;;;30.13;;
2610;SDS011;5612;51.134;17.058;2023-12-04T13:18:58;59.10;;;49.77;;
2610;SDS011;5612;51.134;17.058;2023-12-04T13:21:29;44.23;;;34.53;;
2610;SDS011;5612;51.134;17.058;2023-12-04T13:23:59;116.73;;;85.37;;
2610;SDS011;5612;51.134;17.058;2023-12-04T13:26:31;40.87;;;30.10;;
2610;SDS011;5612;51.134;17.058;2023-12-04T13:29:01;41.27;;;28.77;;
2610;SDS011;5612;51.134;17.058;2023-12-04T13:31:30;49.53;;;31.50;;
2610;SDS011;5612;51.134;17.058;2023-12-04T13:34:00;96.83;;;66.87;;
2610;SDS011;5612;51.134;17.058;2023-12-04T13:36:32;79.50;;;56.50;;
2610;SDS011;5612;51.134;17.058;2023-12-04T13:39:03;49.33;;;36.03;;
2610;SDS011;5612;51.134;17.058;2023-12-04T13:41:40;64.17;;;44.83;;
2610;SDS011;5612;51.134;17.058;2023-12-04T13:44:26;98.87;;;64.67;;
2610;SDS011;5612;51.134;17.058;2023-12-04T13:46:57;169.93;;;99.17;;
2610;SDS011;5612;51.134;17.058;2023-12-04T13:49:29;47.60;;;32.07;;
2610;SDS011;5612;51.134;17.058;2023-12-04T13:52:01;51.67;;;38.03;;
2610;SDS011;5612;51.134;17.058;2023-12-04T13:54:34;59.87;;;41.03;;
2610;SDS011;5612;51.134;17.058;2023-12-04T13:57:11;55.67;;;36.97;;
2610;SDS011;5612;51.134;17.058;2023-12-04T13:59:47;59.00;;;40.20;;
2610;SDS011;5612;51.134;17.058;2023-12-04T14:02:19;47.57;;;29.77;;
2610;SDS011;5612;51.134;17.058;2023-12-04T14:04:49;48.30;;;33.80;;
2610;SDS011;5612;51.134;17.058;2023-12-04T14:07:21;45.00;;;31.13;;
2610;SDS011;5612;51.134;17.058;2023-12-04T14:09:53;46.63;;;31.07;;
2610;SDS011;5612;51.134;17.058;2023-12-04T14:12:23;136.23;;;84.20;;
2610;SDS011;5612;51.134;17.058;2023-12-04T14:14:53;77.30;;;50.03;;
2610;SDS011;5612;51.134;17.058;2023-12-04T14:17:25;45.80;;;29.23;;
2610;SDS011;5612;51.134;17.058;2023-12-04T14:19:55;48.83;;;31.17;;
2610;SDS011;5612;51.134;17.058;2023-12-04T14:22:26;47.53;;;30.90;;
2610;SDS011;5612;51.134;17.058;2023-12-04T14:24:55;43.73;;;28.77;;
2610;SDS011;5612;51.134;17.058;2023-12-04T14:27:25;46.17;;;30.13;;
2610;SDS011;5612;51.134;17.058;2023-12-04T14:29:55;43.70;;;30.50;;
2610;SDS011;5612;51.134;17.058;2023-12-04T14:32:27;39.20;;;28.37;;
2610;SDS011;5612;51.134;17.058;2023-12-04T14:35:09;41.13;;;28.57;;
2610;SDS011;5612;51.134;17.058;2023-12-04T14:37:40;46.87;;;30.37;;
2610;SDS011;5612;51.134;17.058;2023-12-04T14:40:11;45.33;;;26.97;;
2610;SDS011;5612;51.134;17.058;2023-12-04T14:42:42;45.60;;;29.20;;
2610;SDS011;5612;51.134;17.058;2023-12-04T14:45:12;47.73;;;30.33;;
2610;SDS011;5612;51.134;17.058;2023-12-04T14:47:43;46.73;;;32.03;;
2610;SDS011;5612;51.134;17.058;2023-12-04T14:50:15;50.30;;;34.33;;
2610;SDS011;5612;51.134;17.058;2023-12-04T14:52:46;56.63;;;32.43;;
2610;SDS011;5612;51.134;17.058;2023-12-04T14:55:17;48.47;;;31.87;;
2610;SDS011;5612;51.134;17.058;2023-12-04T14:58:04;42.50;;;29.83;;
2610;SDS011;5612;51.134;17.058;2023-12-04T15:01:01;54.10;;;35.77;;